Time;durP1;ratioP1;P1;durP2;ratioP2;P2;SDS_P1;SDS_P2;PMS_P1;PMS_P2;Temp;Humidity;BMP_temperature;BMP_pressure;BME280_temperature;BME280_humidity;BME280_pressure;Samples;Min_cycle;Max_cycle;Signal;HPM_P1;HPM_P2
2023/04/13 00:00:34;;;;;;;0.73;0.20;;;;;;;;;;5076229;28;20036;-58
2023/04/13 00:03:00;;;;;;;0.00;0.00;;;;;;;;;;5076438;28;20508;-57
2023/04/13 00:05:27;;;;;;;0.08;0.05;;;;;;;;;;5076472;28;20036;-58
2023/04/13 00:07:53;;;;;;;0.50;0.20;;;;;;;;;;5076899;28;20032;-56
2023/04/13 00:10:19;;;;;;;0.20;0.10;;;;;;;;;;5076343;28;20060;-58
2023/04/13 00:12:48;;;;;;;2.40;0.40;;;;;;;;;;5077065;28;20111;-57
2023/04/13 00:15:16;;;;;;;1.88;0.32;;;;;;;;;;5076305;28;20133;-58
2023/04/13 00:17:42;;;;;;;0.55;0.30;;;;;;;;;;5076916;28;20032;-58
2023/04/13 00:20:11;;;;;;;0.98;0.35;;;;;;;;;;5076217;28;20035;-58
2023/04/13 00:22:38;;;;;;;0.53;0.20;;;;;;;;;;5076424;28;20031;-57
2023/04/13 00:25:04;;;;;;;0.98;0.47;;;;;;;;;;5076021;28;20028;-58
2023/04/13 00:27:30;;;;;;;0.10;0.10;;;;;;;;;;5076582;28;20028;-58
2023/04/13 00:29:56;;;;;;;0.38;0.10;;;;;;;;;;5075980;28;20104;-58
2023/04/13 00:32:22;;;;;;;0.47;0.22;;;;;;;;;;5075884;28;20056;-57
2023/04/13 00:34:49;;;;;;;0.10;0.10;;;;;;;;;;5076217;28;20465;-58
2023/04/13 00:37:15;;;;;;;0.75;0.30;;;;;;;;;;5076140;28;20033;-57
2023/04/13 00:39:42;;;;;;;0.10;0.10;;;;;;;;;;5076207;28;20428;-58
2023/04/13 00:42:08;;;;;;;0.60;0.17;;;;;;;;;;5076274;28;20024;-55
2023/04/13 00:44:35;;;;;;;0.45;0.17;;;;;;;;;;5076262;28;20394;-57
2023/04/13 00:47:04;;;;;;;0.70;0.25;;;;;;;;;;5076136;28;20029;-57
2023/04/13 00:49:34;;;;;;;0.40;0.20;;;;;;;;;;5076381;28;20112;-57
2023/04/13 00:52:03;;;;;;;0.30;0.20;;;;;;;;;;5075887;28;20033;-56
2023/04/13 00:54:30;;;;;;;0.30;0.15;;;;;;;;;;5075543;28;20016;-57
2023/04/13 00:56:57;;;;;;;1.33;0.38;;;;;;;;;;5075934;28;20030;-58
2023/04/13 00:59:24;;;;;;;0.20;0.10;;;;;;;;;;5075387;28;20029;-56
2023/04/13 01:01:55;;;;;;;0.15;0.10;;;;;;;;;;5075850;28;20028;-57
2023/04/13 01:04:22;;;;;;;;;;;;;;;;;;5075593;28;20064;-56
2023/04/13 01:06:54;;;;;;;0.88;0.40;;;;;;;;;;5075296;28;19952;-56
2023/04/13 01:09:25;;;;;;;0.15;0.10;;;;;;;;;;5075303;28;20083;-58
2023/04/13 01:11:57;;;;;;;0.00;0.00;;;;;;;;;;5075550;28;20024;-56
2023/04/13 01:14:54;;;;;;;0.25;0.17;;;;;;;;;;5074769;28;20076;-55
2023/04/13 01:17:23;;;;;;;0.22;0.10;;;;;;;;;;5066416;28;20032;-58
2023/04/13 01:20:00;;;;;;;1.27;0.17;;;;;;;;;;5075090;28;20033;-58
2023/04/13 01:22:30;;;;;;;0.38;0.25;;;;;;;;;;5074906;28;20043;-57
2023/04/13 01:25:16;;;;;;;0.98;0.47;;;;;;;;;;5075822;28;20032;-58
2023/04/13 01:27:42;;;;;;;0.28;0.10;;;;;;;;;;5075339;28;20048;-55
2023/04/13 01:30:09;;;;;;;0.25;0.17;;;;;;;;;;5074864;28;20021;-54
2023/04/13 01:32:37;;;;;;;0.52;0.15;;;;;;;;;;5074715;28;20025;-57
2023/04/13 01:35:05;;;;;;;0.30;0.10;;;;;;;;;;5074743;28;20060;-57
2023/04/13 01:37:31;;;;;;;0.22;0.20;;;;;;;;;;5074824;28;20037;-55
2023/04/13 01:39:57;;;;;;;0.55;0.30;;;;;;;;;;5074597;28;20100;-57
2023/04/13 01:42:24;;;;;;;0.15;0.10;;;;;;;;;;5074554;28;20032;-56
2023/04/13 01:44:50;;;;;;;0.40;0.20;;;;;;;;;;5074487;28;20103;-56
2023/04/13 01:47:19;;;;;;;2.83;0.22;;;;;;;;;;5075330;28;20047;-58
2023/04/13 01:49:55;;;;;;;1.33;0.50;;;;;;;;;;5074411;28;20037;-58
2023/04/13 01:52:22;;;;;;;0.32;0.20;;;;;;;;;;5074727;28;20025;-57
2023/04/13 01:54:49;;;;;;;0.80;0.30;;;;;;;;;;5074896;28;20031;-56
2023/04/13 01:57:16;;;;;;;0.60;0.28;;;;;;;;;;5074621;28;20032;-58
2023/04/13 01:59:43;;;;;;;1.38;0.30;;;;;;;;;;5074745;28;20033;-57
2023/04/13 02:02:15;;;;;;;0.10;0.10;;;;;;;;;;5075009;28;20096;-58
2023/04/13 02:04:41;;;;;;;0.68;0.30;;;;;;;;;;5075340;28;20081;-55
2023/04/13 02:07:07;;;;;;;0.43;0.20;;;;;;;;;;5074690;28;20024;-56
2023/04/13 02:09:34;;;;;;;0.40;0.28;;;;;;;;;;5074591;28;20024;-55
2023/04/13 02:12:00;;;;;;;0.10;0.05;;;;;;;;;;5074067;28;20100;-53
2023/04/13 02:14:26;;;;;;;0.65;0.20;;;;;;;;;;5074347;28;20466;-57
2023/04/13 02:16:52;;;;;;;0.35;0.20;;;;;;;;;;5073993;28;20459;-56
2023/04/13 02:19:19;;;;;;;0.55;0.20;;;;;;;;;;5073923;28;20085;-56
2023/04/13 02:21:45;;;;;;;0.30;0.17;;;;;;;;;;5073905;28;20036;-58
2023/04/13 02:24:10;;;;;;;0.47;0.30;;;;;;;;;;5074519;28;20500;-58
2023/04/13 02:26:36;;;;;;;3.03;0.45;;;;;;;;;;5074501;28;20406;-57
2023/04/13 02:29:02;;;;;;;0.40;0.20;;;;;;;;;;5073602;28;20020;-55
2023/04/13 02:31:30;;;;;;;0.38;0.10;;;;;;;;;;5074088;28;20398;-56
2023/04/13 02:33:57;;;;;;;0.85;0.40;;;;;;;;;;5073769;28;20024;-58
2023/04/13 02:36:23;;;;;;;1.13;0.40;;;;;;;;;;5074168;28;20032;-55
2023/04/13 02:38:49;;;;;;;0.70;0.32;;;;;;;;;;5073718;28;20458;-55
2023/04/13 02:41:21;;;;;;;0.25;0.20;;;;;;;;;;5072309;28;20024;-56
2023/04/13 02:43:48;;;;;;;0.77;0.38;;;;;;;;;;5074006;28;20462;-57
2023/04/13 02:46:14;;;;;;;1.48;1.38;;;;;;;;;;5073644;28;20533;-56
2023/04/13 02:48:40;;;;;;;0.47;0.15;;;;;;;;;;5073735;28;20064;-58
2023/04/13 02:51:07;;;;;;;0.30;0.20;;;;;;;;;;5073602;28;20119;-58
2023/04/13 02:53:33;;;;;;;0.95;0.68;;;;;;;;;;5073634;28;20340;-57
2023/04/13 02:55:59;;;;;;;2.15;0.47;;;;;;;;;;5073949;28;20049;-56
2023/04/13 02:58:25;;;;;;;0.52;0.20;;;;;;;;;;5074031;28;20064;-58
2023/04/13 03:00:51;;;;;;;0.80;0.35;;;;;;;;;;5073554;28;20032;-58
2023/04/13 03:03:17;;;;;;;2.95;0.73;;;;;;;;;;5074044;28;20107;-55
2023/04/13 03:05:44;;;;;;;0.20;0.10;;;;;;;;;;5074316;28;20052;-57
2023/04/13 03:08:10;;;;;;;0.95;0.52;;;;;;;;;;5073965;28;20060;-58
2023/04/13 03:10:36;;;;;;;0.55;0.20;;;;;;;;;;5073665;28;20475;-54
2023/04/13 03:13:02;;;;;;;1.98;0.47;;;;;;;;;;5073309;28;20114;-56
2023/04/13 03:15:29;;;;;;;1.55;0.63;;;;;;;;;;5073619;28;20044;-56
2023/04/13 03:17:58;;;;;;;1.52;0.20;;;;;;;;;;5074015;28;20032;-56
2023/04/13 03:20:24;;;;;;;1.00;0.40;;;;;;;;;;5073626;28;20432;-56
2023/04/13 03:22:52;;;;;;;0.52;0.32;;;;;;;;;;5073646;28;20029;-56
2023/04/13 03:25:18;;;;;;;2.40;0.57;;;;;;;;;;5073294;28;20061;-58
2023/04/13 03:27:44;;;;;;;0.35;0.20;;;;;;;;;;5075412;28;20040;-56
2023/04/13 03:30:10;;;;;;;1.05;0.32;;;;;;;;;;5077676;28;20078;-57
2023/04/13 03:32:37;;;;;;;0.63;0.40;;;;;;;;;;5077130;28;20343;-56
2023/04/13 03:35:03;;;;;;;0.95;0.35;;;;;;;;;;5077360;28;20025;-58
2023/04/13 03:37:31;;;;;;;1.13;0.40;;;;;;;;;;5076901;28;20067;-57
2023/04/13 03:39:58;;;;;;;2.13;0.60;;;;;;;;;;5077389;28;20036;-58
2023/04/13 03:42:23;;;;;;;0.98;0.63;;;;;;;;;;5076903;28;20028;-56
2023/04/13 03:44:50;;;;;;;1.05;0.68;;;;;;;;;;5076892;28;20028;-57
2023/04/13 03:47:16;;;;;;;2.35;0.63;;;;;;;;;;5077094;28;20374;-58
2023/04/13 03:49:41;;;;;;;1.60;0.45;;;;;;;;;;5077030;28;20027;-58
2023/04/13 03:52:07;;;;;;;0.57;0.35;;;;;;;;;;5077091;28;20502;-55
2023/04/13 03:54:34;;;;;;;1.40;0.38;;;;;;;;;;5076852;28;20101;-57
2023/04/13 03:57:01;;;;;;;2.63;0.75;;;;;;;;;;5077226;28;20060;-58
2023/04/13 03:59:27;;;;;;;1.13;0.35;;;;;;;;;;5077479;28;20359;-57
2023/04/13 04:01:53;;;;;;;0.70;0.40;;;;;;;;;;5076635;28;20047;-58
2023/04/13 04:04:20;;;;;;;0.30;0.13;;;;;;;;;;5077172;28;20099;-58
2023/04/13 04:06:46;;;;;;;2.85;0.50;;;;;;;;;;5077378;28;20036;-57
2023/04/13 04:09:12;;;;;;;0.60;0.38;;;;;;;;;;5076780;28;20455;-58
2023/04/13 04:11:37;;;;;;;1.20;0.50;;;;;;;;;;5076505;28;20103;-58
2023/04/13 04:14:04;;;;;;;0.70;0.30;;;;;;;;;;5076511;28;20033;-57
2023/04/13 04:16:29;;;;;;;1.65;0.35;;;;;;;;;;5077111;28;20029;-57
2023/04/13 04:18:56;;;;;;;8.48;0.95;;;;;;;;;;5076317;28;20033;-55
2023/04/13 04:21:21;;;;;;;2.85;0.57;;;;;;;;;;5076828;28;20113;-56
2023/04/13 04:23:48;;;;;;;0.30;0.15;;;;;;;;;;5076299;28;20028;-57
2023/04/13 04:26:14;;;;;;;0.47;0.30;;;;;;;;;;5076847;28;20028;-56
2023/04/13 04:28:40;;;;;;;0.68;0.40;;;;;;;;;;5076200;28;20455;-58
2023/04/13 04:31:09;;;;;;;0.88;0.40;;;;;;;;;;5076664;28;20078;-57
2023/04/13 04:33:37;;;;;;;0.15;0.10;;;;;;;;;;5076087;28;20024;-57
2023/04/13 04:36:03;;;;;;;4.25;1.27;;;;;;;;;;5076579;28;20032;-57
2023/04/13 04:38:31;;;;;;;0.47;0.30;;;;;;;;;;5074510;28;20033;-57
2023/04/13 04:40:58;;;;;;;2.67;0.77;;;;;;;;;;5075794;28;20067;-55
2023/04/13 04:43:28;;;;;;;3.35;0.65;;;;;;;;;;5075815;28;20028;-57
2023/04/13 04:45:56;;;;;;;2.75;0.65;;;;;;;;;;5076704;28;20039;-56
2023/04/13 04:48:23;;;;;;;3.83;1.25;;;;;;;;;;5076278;28;20028;-57
2023/04/13 04:50:51;;;;;;;1.88;0.60;;;;;;;;;;5075661;28;20017;-56
2023/04/13 04:53:17;;;;;;;1.17;0.82;;;;;;;;;;5075387;28;20470;-58
2023/04/13 04:55:43;;;;;;;1.88;0.80;;;;;;;;;;5076279;28;20032;-57
2023/04/13 04:58:09;;;;;;;2.38;0.43;;;;;;;;;;5075515;28;20021;-57
2023/04/13 05:00:35;;;;;;;2.30;0.70;;;;;;;;;;5076061;28;20027;-58
2023/04/13 05:03:01;;;;;;;1.73;0.38;;;;;;;;;;5075473;28;20074;-56
2023/04/13 05:05:31;;;;;;;2.55;0.75;;;;;;;;;;5075770;28;20020;-58
2023/04/13 05:07:57;;;;;;;2.93;0.40;;;;;;;;;;5075639;28;20028;-58
2023/04/13 05:10:25;;;;;;;1.80;0.90;;;;;;;;;;5075309;28;20247;-58
2023/04/13 05:12:51;;;;;;;0.57;0.28;;;;;;;;;;5075188;28;20029;-56
2023/04/13 05:15:17;;;;;;;0.43;0.30;;;;;;;;;;5075217;28;20049;-57
2023/04/13 05:17:45;;;;;;;0.73;0.43;;;;;;;;;;5075090;28;20470;-57
2023/04/13 05:20:12;;;;;;;3.30;0.50;;;;;;;;;;5075103;28;20036;-56
2023/04/13 05:22:38;;;;;;;4.45;0.60;;;;;;;;;;5075448;28;20505;-58
2023/04/13 05:25:05;;;;;;;2.30;1.08;;;;;;;;;;5075339;28;20033;-57
2023/04/13 05:27:31;;;;;;;1.30;0.63;;;;;;;;;;5075196;28;20378;-56
2023/04/13 05:29:57;;;;;;;2.83;0.82;;;;;;;;;;5074952;28;20029;-57
2023/04/13 05:32:23;;;;;;;6.35;1.02;;;;;;;;;;5075334;28;20082;-58
2023/04/13 05:34:50;;;;;;;0.47;0.20;;;;;;;;;;5074809;28;20025;-56
2023/04/13 05:37:16;;;;;;;1.40;0.50;;;;;;;;;;5075260;28;20082;-57
2023/04/13 05:39:42;;;;;;;4.32;0.73;;;;;;;;;;5074699;28;20110;-56
2023/04/13 05:42:08;;;;;;;1.13;0.52;;;;;;;;;;5074501;28;20033;-57
2023/04/13 05:44:34;;;;;;;2.72;0.88;;;;;;;;;;5074738;28;20040;-56
2023/04/13 05:47:01;;;;;;;2.00;0.82;;;;;;;;;;5075158;28;20059;-58
2023/04/13 05:49:27;;;;;;;3.25;0.95;;;;;;;;;;5074295;28;20377;-57
2023/04/13 05:51:53;;;;;;;0.80;0.50;;;;;;;;;;5074843;28;20039;-58
2023/04/13 05:54:19;;;;;;;0.82;0.47;;;;;;;;;;5074546;28;20082;-58
2023/04/13 05:56:46;;;;;;;0.98;0.20;;;;;;;;;;5073695;28;20029;-57
2023/04/13 05:59:13;;;;;;;2.15;0.50;;;;;;;;;;5074334;28;20078;-58
2023/04/13 06:01:39;;;;;;;1.48;0.85;;;;;;;;;;5074865;28;20033;-57
2023/04/13 06:04:05;;;;;;;1.48;0.57;;;;;;;;;;5074591;28;20104;-58
2023/04/13 06:06:31;;;;;;;3.22;0.60;;;;;;;;;;5075081;28;20121;-58
2023/04/13 06:08:57;;;;;;;3.85;0.70;;;;;;;;;;5074240;28;20021;-55
2023/04/13 06:11:24;;;;;;;0.88;0.50;;;;;;;;;;5074056;28;20028;-56
2023/04/13 06:13:50;;;;;;;2.95;0.75;;;;;;;;;;5073799;28;20393;-57
2023/04/13 06:16:17;;;;;;;6.70;0.68;;;;;;;;;;5074436;28;20032;-56
2023/04/13 06:18:43;;;;;;;0.93;0.40;;;;;;;;;;5074653;28;20037;-56
2023/04/13 06:21:09;;;;;;;3.22;0.80;;;;;;;;;;5074205;28;20027;-57
2023/04/13 06:23:36;;;;;;;0.80;0.28;;;;;;;;;;5074265;28;20123;-56
2023/04/13 06:26:02;;;;;;;1.98;0.55;;;;;;;;;;5074267;28;20040;-56
2023/04/13 06:28:30;;;;;;;0.82;0.40;;;;;;;;;;5074228;28;20378;-55
2023/04/13 06:30:56;;;;;;;1.40;0.68;;;;;;;;;;5073680;28;20420;-56
2023/04/13 06:33:22;;;;;;;1.48;0.40;;;;;;;;;;5074375;28;20028;-58
2023/04/13 06:35:48;;;;;;;2.67;1.63;;;;;;;;;;5073941;28;20020;-58
2023/04/13 06:38:14;;;;;;;0.10;0.10;;;;;;;;;;5073698;28;20032;-58
2023/04/13 06:40:40;;;;;;;2.65;0.70;;;;;;;;;;5074207;28;20041;-59
2023/04/13 06:43:06;;;;;;;4.47;0.43;;;;;;;;;;5073900;28;20343;-57
2023/04/13 06:45:32;;;;;;;3.13;0.98;;;;;;;;;;5073981;28;20024;-58
2023/04/13 06:47:59;;;;;;;5.57;0.50;;;;;;;;;;5073980;28;20443;-58
2023/04/13 06:50:25;;;;;;;2.85;0.90;;;;;;;;;;5074098;28;20028;-57
2023/04/13 06:52:51;;;;;;;1.52;0.70;;;;;;;;;;5073653;28;20024;-58
2023/04/13 06:55:17;;;;;;;2.50;0.40;;;;;;;;;;5073847;28;20107;-57
2023/04/13 06:57:43;;;;;;;1.55;0.50;;;;;;;;;;5073532;28;20028;-58
2023/04/13 07:00:13;;;;;;;2.45;0.70;;;;;;;;;;5073281;28;20455;-58
2023/04/13 07:02:39;;;;;;;1.02;0.60;;;;;;;;;;5075658;28;20025;-58
2023/04/13 07:05:06;;;;;;;1.73;0.43;;;;;;;;;;5078435;28;20035;-58
2023/04/13 07:07:32;;;;;;;2.70;0.80;;;;;;;;;;5077606;28;20029;-56
2023/04/13 07:09:58;;;;;;;2.03;0.55;;;;;;;;;;5077869;28;20103;-57
2023/04/13 07:12:24;;;;;;;2.38;0.73;;;;;;;;;;5077544;28;20086;-58
2023/04/13 07:14:50;;;;;;;0.95;0.63;;;;;;;;;;5077988;28;20086;-58
2023/04/13 07:17:17;;;;;;;2.72;0.80;;;;;;;;;;5078183;28;20142;-58
2023/04/13 07:19:46;;;;;;;2.30;0.40;;;;;;;;;;5077974;28;20044;-57
2023/04/13 07:22:12;;;;;;;0.55;0.28;;;;;;;;;;5077164;28;20097;-55
2023/04/13 07:24:38;;;;;;;2.20;0.80;;;;;;;;;;5077458;28;20060;-55
2023/04/13 07:27:04;;;;;;;1.88;0.52;;;;;;;;;;5077877;28;20392;-55
2023/04/13 07:29:30;;;;;;;2.55;0.65;;;;;;;;;;5077322;28;20025;-56
2023/04/13 07:32:03;;;;;;;3.55;0.90;;;;;;;;;;5077887;28;20151;-54
2023/04/13 07:34:29;;;;;;;0.75;0.40;;;;;;;;;;5077134;28;20029;-55
2023/04/13 07:36:55;;;;;;;3.08;0.80;;;;;;;;;;5077157;28;20370;-55
2023/04/13 07:39:21;;;;;;;1.55;0.60;;;;;;;;;;5077015;28;20078;-57
2023/04/13 07:41:47;;;;;;;2.72;0.73;;;;;;;;;;5077089;28;20025;-56
2023/04/13 07:44:14;;;;;;;1.17;0.32;;;;;;;;;;5076931;28;20024;-56
2023/04/13 07:46:40;;;;;;;0.80;0.47;;;;;;;;;;5076983;28;20024;-56
2023/04/13 07:49:06;;;;;;;1.55;0.60;;;;;;;;;;5076919;28;20025;-55
2023/04/13 07:51:33;;;;;;;1.65;0.50;;;;;;;;;;5076507;28;20040;-58
2023/04/13 07:53:59;;;;;;;1.65;0.75;;;;;;;;;;5077911;28;20404;-57
2023/04/13 07:56:26;;;;;;;4.47;0.77;;;;;;;;;;5076742;28;20042;-58
2023/04/13 07:58:52;;;;;;;1.38;1.00;;;;;;;;;;5076680;28;20075;-55
2023/04/13 08:01:18;;;;;;;2.10;0.55;;;;;;;;;;5076578;28;20060;-57
2023/04/13 08:03:44;;;;;;;1.98;0.57;;;;;;;;;;5076351;28;20389;-57
2023/04/13 08:06:10;;;;;;;6.82;0.80;;;;;;;;;;5076849;28;20056;-57
2023/04/13 08:08:36;;;;;;;5.78;1.00;;;;;;;;;;5077107;28;20400;-56
2023/04/13 08:11:02;;;;;;;2.50;1.77;;;;;;;;;;5077086;28;20032;-57
2023/04/13 08:13:29;;;;;;;2.05;1.20;;;;;;;;;;5076573;28;20378;-57
2023/04/13 08:15:56;;;;;;;2.05;0.38;;;;;;;;;;5076289;28;20056;-57
2023/04/13 08:18:22;;;;;;;2.67;0.80;;;;;;;;;;5076121;28;20029;-57
2023/04/13 08:20:48;;;;;;;4.90;0.50;;;;;;;;;;5076101;28;20033;-57
2023/04/13 08:23:14;;;;;;;3.58;0.70;;;;;;;;;;5076248;28;20039;-58
2023/04/13 08:25:41;;;;;;;3.78;1.25;;;;;;;;;;5076673;28;20071;-58
2023/04/13 08:28:08;;;;;;;1.65;0.70;;;;;;;;;;5076104;28;20036;-58
2023/04/13 08:30:34;;;;;;;1.67;0.70;;;;;;;;;;5075916;28;20111;-58
2023/04/13 08:33:02;;;;;;;6.78;1.30;;;;;;;;;;5075979;28;20489;-57
2023/04/13 08:35:28;;;;;;;0.50;0.20;;;;;;;;;;5076435;28;20024;-58
2023/04/13 08:37:54;;;;;;;4.72;0.85;;;;;;;;;;5075668;28;20489;-57
2023/04/13 08:40:21;;;;;;;1.08;0.52;;;;;;;;;;5075821;28;20032;-58
2023/04/13 08:42:47;;;;;;;1.95;0.77;;;;;;;;;;5075925;28;20369;-56
2023/04/13 08:45:14;;;;;;;2.42;0.52;;;;;;;;;;5076059;28;20451;-57
2023/04/13 08:47:40;;;;;;;2.28;0.93;;;;;;;;;;5075530;28;20081;-56
2023/04/13 08:50:07;;;;;;;5.18;0.60;;;;;;;;;;5075546;28;20106;-58
2023/04/13 08:52:34;;;;;;;1.23;0.60;;;;;;;;;;5075649;28;20025;-56
2023/04/13 08:55:02;;;;;;;2.83;0.80;;;;;;;;;;5075732;28;20024;-58
2023/04/13 08:57:29;;;;;;;1.73;1.00;;;;;;;;;;5074543;28;20033;-58
2023/04/13 08:59:56;;;;;;;2.25;0.80;;;;;;;;;;5075490;28;20056;-57
2023/04/13 09:02:23;;;;;;;2.78;0.40;;;;;;;;;;5076017;28;20024;-58
2023/04/13 09:04:49;;;;;;;2.05;1.25;;;;;;;;;;5075199;28;20024;-57
2023/04/13 09:07:20;;;;;;;2.35;0.80;;;;;;;;;;5076026;28;20024;-56
2023/04/13 09:09:47;;;;;;;5.63;1.02;;;;;;;;;;5075364;28;20056;-57
2023/04/13 09:12:14;;;;;;;2.60;0.85;;;;;;;;;;5075208;28;20032;-56
2023/04/13 09:14:41;;;;;;;2.53;1.05;;;;;;;;;;5075925;28;20056;-55
2023/04/13 09:17:07;;;;;;;2.40;0.88;;;;;;;;;;5075304;28;20340;-58
2023/04/13 09:19:33;;;;;;;3.65;1.02;;;;;;;;;;5075101;28;20028;-57
2023/04/13 09:21:59;;;;;;;2.28;0.70;;;;;;;;;;5075011;28;20064;-58
2023/04/13 09:24:26;;;;;;;1.23;0.50;;;;;;;;;;5074297;28;20530;-54
2023/04/13 09:26:52;;;;;;;6.95;2.72;;;;;;;;;;5076136;28;20032;-59
2023/04/13 09:29:19;;;;;;;4.22;0.75;;;;;;;;;;5075760;28;20049;-55
2023/04/13 09:31:46;;;;;;;3.15;1.20;;;;;;;;;;5074807;28;20067;-57
2023/04/13 09:34:12;;;;;;;1.73;0.80;;;;;;;;;;5075431;28;20029;-55
2023/04/13 09:36:38;;;;;;;2.03;0.55;;;;;;;;;;5075430;28;20032;-58
2023/04/13 09:39:05;;;;;;;7.30;1.05;;;;;;;;;;5074741;28;20037;-58
2023/04/13 09:41:39;;;;;;;1.15;0.47;;;;;;;;;;5075175;28;20108;-58
2023/04/13 09:44:26;;;;;;;2.20;1.00;;;;;;;;;;5075446;28;20094;-58
2023/04/13 09:46:59;;;;;;;2.90;1.10;;;;;;;;;;5075203;28;20528;-58
2023/04/13 09:49:25;;;;;;;2.92;1.00;;;;;;;;;;5074979;28;20401;-58
2023/04/13 09:51:52;;;;;;;1.48;0.82;;;;;;;;;;5075043;28;20410;-58
2023/04/13 09:54:21;;;;;;;2.72;0.93;;;;;;;;;;5074802;28;20362;-58
2023/04/13 09:56:52;;;;;;;1.95;1.10;;;;;;;;;;5074750;28;20028;-58
2023/04/13 09:59:19;;;;;;;2.35;0.60;;;;;;;;;;5074979;28;20458;-57
2023/04/13 10:01:45;;;;;;;3.63;1.00;;;;;;;;;;5074361;28;20031;-58
2023/04/13 10:04:11;;;;;;;6.93;0.93;;;;;;;;;;5075110;28;20028;-57
2023/04/13 10:06:42;;;;;;;6.57;1.52;;;;;;;;;;5075125;28;20034;-56
2023/04/13 10:09:08;;;;;;;3.08;1.10;;;;;;;;;;5074223;28;20374;-58
2023/04/13 10:11:38;;;;;;;6.07;0.77;;;;;;;;;;5074724;28;20024;-57
2023/04/13 10:14:08;;;;;;;1.25;0.95;;;;;;;;;;5074022;28;20025;-56
2023/04/13 10:16:52;;;;;;;2.35;0.73;;;;;;;;;;5074227;28;20466;-55
2023/04/13 10:19:21;;;;;;;4.05;0.90;;;;;;;;;;5074300;28;20410;-57
2023/04/13 10:21:49;;;;;;;2.05;1.00;;;;;;;;;;5073957;28;20383;-56
2023/04/13 10:24:16;;;;;;;6.43;1.40;;;;;;;;;;5073988;28;20118;-56
2023/04/13 10:26:43;;;;;;;1.88;1.10;;;;;;;;;;5074416;28;20428;-57
2023/04/13 10:29:12;;;;;;;3.47;0.93;;;;;;;;;;5074352;28;20099;-57
2023/04/13 10:31:48;;;;;;;1.13;1.05;;;;;;;;;;5073778;28;20115;-58
2023/04/13 10:34:26;;;;;;;3.08;1.00;;;;;;;;;;5074145;28;20395;-57
2023/04/13 10:36:54;;;;;;;3.83;0.93;;;;;;;;;;5073436;28;20037;-57
2023/04/13 10:39:24;;;;;;;1.00;0.45;;;;;;;;;;5074211;28;20028;-57
2023/04/13 10:42:03;;;;;;;1.35;0.65;;;;;;;;;;5074379;28;20060;-57
2023/04/13 10:44:47;;;;;;;6.78;0.98;;;;;;;;;;5073803;28;20021;-55
2023/04/13 10:47:14;;;;;;;1.60;0.77;;;;;;;;;;5074390;28;20174;-57
2023/04/13 10:49:41;;;;;;;3.50;0.55;;;;;;;;;;5073687;28;20481;-53
2023/04/13 10:52:09;;;;;;;2.72;0.70;;;;;;;;;;5074162;28;20025;-53
2023/04/13 10:54:35;;;;;;;3.08;0.77;;;;;;;;;;5073645;28;20024;-58
2023/04/13 10:57:02;;;;;;;4.35;0.68;;;;;;;;;;5073368;28;20383;-57
2023/04/13 10:59:43;;;;;;;6.57;0.93;;;;;;;;;;5073149;28;20050;-54
2023/04/13 11:02:13;;;;;;;1.48;0.68;;;;;;;;;;5073141;28;20021;-55
2023/04/13 11:04:46;;;;;;;0.47;0.17;;;;;;;;;;5073709;28;20418;-56
2023/04/13 11:07:15;;;;;;;3.38;1.27;;;;;;;;;;5074004;28;20115;-56
2023/04/13 11:09:46;;;;;;;2.28;1.00;;;;;;;;;;5073422;28;20488;-57
2023/04/13 11:12:12;;;;;;;;;;;;;;;;;;5073719;28;20036;-57
2023/04/13 11:14:38;;;;;;;1.70;0.63;;;;;;;;;;5073523;28;20331;-57
2023/04/13 11:17:05;;;;;;;2.88;0.77;;;;;;;;;;5073370;28;20045;-57
2023/04/13 11:19:31;;;;;;;3.10;0.80;;;;;;;;;;5073476;28;20024;-56
2023/04/13 11:21:58;;;;;;;2.78;1.38;;;;;;;;;;5073534;28;20025;-57
2023/04/13 11:24:28;;;;;;;0.77;0.43;;;;;;;;;;5073792;28;20059;-56
2023/04/13 11:26:54;;;;;;;6.93;1.35;;;;;;;;;;5074091;28;20032;-57
2023/04/13 11:29:21;;;;;;;4.75;0.90;;;;;;;;;;5074009;28;20025;-58
2023/04/13 11:31:47;;;;;;;0.68;0.32;;;;;;;;;;5074193;28;20075;-57
2023/04/13 11:34:24;;;;;;;7.10;0.63;;;;;;;;;;5073634;28;20182;-57
2023/04/13 11:36:59;;;;;;;4.95;1.05;;;;;;;;;;5073553;28;20028;-57
2023/04/13 11:39:26;;;;;;;3.92;0.73;;;;;;;;;;5073656;28;20025;-58
2023/04/13 11:41:51;;;;;;;2.53;1.25;;;;;;;;;;5073265;28;20024;-56
2023/04/13 11:44:17;;;;;;;2.72;0.57;;;;;;;;;;5073224;28;20028;-57
2023/04/13 11:46:43;;;;;;;1.13;0.45;;;;;;;;;;5073308;28;20064;-57
2023/04/13 11:49:10;;;;;;;1.45;0.93;;;;;;;;;;5076513;28;20051;-57
2023/04/13 11:51:36;;;;;;;0.98;0.50;;;;;;;;;;5076881;28;20032;-55
2023/04/13 11:54:02;;;;;;;1.02;0.75;;;;;;;;;;5076998;28;20462;-58
2023/04/13 11:56:29;;;;;;;7.25;0.98;;;;;;;;;;5077255;28;20400;-58
2023/04/13 11:58:55;;;;;;;3.60;0.57;;;;;;;;;;5076498;28;20072;-57
2023/04/13 12:01:21;;;;;;;7.15;1.27;;;;;;;;;;5076757;28;20027;-57
2023/04/13 12:03:48;;;;;;;1.77;0.88;;;;;;;;;;5076479;28;20111;-57
2023/04/13 12:06:15;;;;;;;1.25;0.55;;;;;;;;;;5076590;28;20030;-55
2023/04/13 12:08:41;;;;;;;3.30;0.65;;;;;;;;;;5076960;28;20028;-57
2023/04/13 12:11:08;;;;;;;1.00;0.45;;;;;;;;;;5076371;28;20024;-57
2023/04/13 12:13:44;;;;;;;1.67;0.98;;;;;;;;;;5076508;28;20111;-57
2023/04/13 12:16:13;;;;;;;3.03;0.57;;;;;;;;;;5077340;28;20090;-57
2023/04/13 12:18:41;;;;;;;1.02;0.50;;;;;;;;;;5076265;28;20043;-57
2023/04/13 12:21:11;;;;;;;2.45;0.70;;;;;;;;;;5074915;28;20473;-57
2023/04/13 12:23:37;;;;;;;2.15;0.55;;;;;;;;;;5076207;28;20070;-58
2023/04/13 12:26:04;;;;;;;2.60;1.15;;;;;;;;;;5077111;28;20036;-58
2023/04/13 12:28:34;;;;;;;2.95;0.90;;;;;;;;;;5076571;28;20036;-58
2023/04/13 12:31:07;;;;;;;7.10;1.55;;;;;;;;;;5076106;28;20052;-58
2023/04/13 12:33:34;;;;;;;3.85;1.17;;;;;;;;;;5076542;28;20031;-57
2023/04/13 12:36:00;;;;;;;3.58;1.27;;;;;;;;;;5076495;28;20025;-58
2023/04/13 12:38:26;;;;;;;5.80;2.63;;;;;;;;;;5075823;28;20124;-58
2023/04/13 12:40:55;;;;;;;4.57;2.20;;;;;;;;;;5076071;28;20470;-57
2023/04/13 12:43:21;;;;;;;5.43;3.00;;;;;;;;;;5075741;28;20035;-58
2023/04/13 12:45:48;;;;;;;3.60;1.88;;;;;;;;;;5076139;28;20451;-58
2023/04/13 12:48:14;;;;;;;3.42;1.90;;;;;;;;;;5076025;28;20386;-57
2023/04/13 12:50:40;;;;;;;6.85;1.42;;;;;;;;;;5075765;28;20072;-57
2023/04/13 12:53:06;;;;;;;5.03;1.90;;;;;;;;;;5075635;28;20020;-57
2023/04/13 12:55:32;;;;;;;4.43;1.17;;;;;;;;;;5075701;28;20035;-56
2023/04/13 12:57:58;;;;;;;2.00;1.02;;;;;;;;;;5075531;28;20107;-58
2023/04/13 13:00:24;;;;;;;2.17;0.82;;;;;;;;;;5074622;28;20537;-57
2023/04/13 13:02:53;;;;;;;1.20;0.65;;;;;;;;;;5075433;28;20025;-57
2023/04/13 13:05:19;;;;;;;0.88;0.35;;;;;;;;;;5075385;28;20024;-58
2023/04/13 13:07:45;;;;;;;0.85;0.32;;;;;;;;;;5075274;28;20039;-56
2023/04/13 13:10:11;;;;;;;1.83;0.70;;;;;;;;;;5075360;28;20450;-57
2023/04/13 13:12:37;;;;;;;0.50;0.30;;;;;;;;;;5076069;28;20397;-57
2023/04/13 13:15:06;;;;;;;1.17;0.50;;;;;;;;;;5075731;28;20045;-56
2023/04/13 13:17:32;;;;;;;2.28;0.52;;;;;;;;;;5075231;28;20024;-57
2023/04/13 13:19:58;;;;;;;0.90;0.55;;;;;;;;;;5075615;28;20376;-57
2023/04/13 13:22:24;;;;;;;1.75;0.50;;;;;;;;;;5075441;28;20033;-58
2023/04/13 13:24:50;;;;;;;1.40;0.25;;;;;;;;;;5075460;28;20028;-57
2023/04/13 13:27:16;;;;;;;0.77;0.50;;;;;;;;;;5075682;28;20039;-58
2023/04/13 13:29:43;;;;;;;2.60;0.73;;;;;;;;;;5075089;28;20028;-57
2023/04/13 13:32:09;;;;;;;2.22;1.20;;;;;;;;;;5074916;28;20111;-57
2023/04/13 13:34:35;;;;;;;4.60;2.25;;;;;;;;;;5074820;28;20059;-56
2023/04/13 13:37:01;;;;;;;3.40;1.73;;;;;;;;;;5075634;28;20366;-58
2023/04/13 13:39:27;;;;;;;5.38;1.73;;;;;;;;;;5074755;28;20028;-56
2023/04/13 13:41:53;;;;;;;3.05;0.80;;;;;;;;;;5074419;28;20017;-58
2023/04/13 13:44:19;;;;;;;2.53;1.25;;;;;;;;;;5074058;28;20469;-57
2023/04/13 13:46:45;;;;;;;2.25;0.52;;;;;;;;;;5075064;28;20034;-57
2023/04/13 13:49:11;;;;;;;1.90;0.80;;;;;;;;;;5074614;28;20054;-57
2023/04/13 13:51:37;;;;;;;1.17;0.57;;;;;;;;;;5074562;28;20028;-57
2023/04/13 13:54:03;;;;;;;1.08;0.40;;;;;;;;;;5074772;28;20382;-57
2023/04/13 13:56:29;;;;;;;0.88;0.25;;;;;;;;;;5075191;28;20369;-57
2023/04/13 13:58:55;;;;;;;0.77;0.38;;;;;;;;;;5074567;28;20032;-57
2023/04/13 14:01:21;;;;;;;1.13;0.45;;;;;;;;;;5074445;28;20024;-58
2023/04/13 14:03:46;;;;;;;0.98;0.73;;;;;;;;;;5074280;28;20028;-58
2023/04/13 14:06:13;;;;;;;2.70;0.35;;;;;;;;;;5074608;28;20021;-58
2023/04/13 14:08:38;;;;;;;1.52;0.73;;;;;;;;;;5074335;28;20036;-57
2023/04/13 14:11:05;;;;;;;2.33;0.70;;;;;;;;;;5074105;28;20028;-57
2023/04/13 14:13:31;;;;;;;0.63;0.25;;;;;;;;;;5074812;28;20392;-56
2023/04/13 14:15:57;;;;;;;2.72;0.68;;;;;;;;;;5075425;28;20052;-58
2023/04/13 14:18:23;;;;;;;0.57;0.30;;;;;;;;;;5074485;28;20029;-58
2023/04/13 14:20:50;;;;;;;1.23;0.75;;;;;;;;;;5074179;28;20482;-57
2023/04/13 14:23:16;;;;;;;2.33;0.80;;;;;;;;;;5074625;28;20035;-57
2023/04/13 14:25:42;;;;;;;1.15;0.52;;;;;;;;;;5074680;28;20025;-57
2023/04/13 14:28:10;;;;;;;2.15;1.15;;;;;;;;;;5074029;28;20055;-57
2023/04/13 14:30:36;;;;;;;2.15;0.80;;;;;;;;;;5073955;28;20024;-57
2023/04/13 14:33:03;;;;;;;1.40;0.82;;;;;;;;;;5074548;28;20029;-59
2023/04/13 14:35:29;;;;;;;1.55;0.98;;;;;;;;;;5074565;28;20035;-58
2023/04/13 14:37:55;;;;;;;1.13;0.68;;;;;;;;;;5073988;28;20036;-59
2023/04/13 14:40:22;;;;;;;3.10;0.73;;;;;;;;;;5073738;28;20028;-58
2023/04/13 14:42:49;;;;;;;1.70;0.57;;;;;;;;;;5073828;28;20028;-58